sensor_id;sensor_type;location;lat;lon;timestamp;P1;durP1;ratioP1;P2;durP2;ratioP2
18574;SDS011;9417;16.484;102.872;2023-11-21T00:00:43;13.13;;;9.18;;
18574;SDS011;9417;16.484;102.872;2023-11-21T00:02:51;12.15;;;9.63;;
18574;SDS011;9417;16.484;102.872;2023-11-21T00:04:58;13.38;;;6.68;;
18574;SDS011;9417;16.484;102.872;2023-11-21T00:07:06;13.00;;;7.15;;
18574;SDS011;9417;16.484;102.872;2023-11-21T00:09:14;14.38;;;7.25;;
18574;SDS011;9417;16.484;102.872;2023-11-21T00:11:21;16.88;;;7.95;;
18574;SDS011;9417;16.484;102.872;2023-11-21T00:13:28;18.92;;;8.50;;
18574;SDS011;9417;16.484;102.872;2023-11-21T00:15:35;25.38;;;19.60;;
18574;SDS011;9417;16.484;102.872;2023-11-21T00:17:45;23.58;;;19.63;;
18574;SDS011;9417;16.484;102.872;2023-11-21T00:19:52;17.08;;;9.90;;
18574;SDS011;9417;16.484;102.872;2023-11-21T00:22:00;23.10;;;9.93;;
18574;SDS011;9417;16.484;102.872;2023-11-21T00:24:07;22.35;;;10.27;;
18574;SDS011;9417;16.484;102.872;2023-11-21T00:26:17;20.50;;;15.77;;
18574;SDS011;9417;16.484;102.872;2023-11-21T00:28:32;24.45;;;10.80;;
18574;SDS011;9417;16.484;102.872;2023-11-21T00:30:39;17.65;;;10.63;;
18574;SDS011;9417;16.484;102.872;2023-11-21T00:32:49;18.40;;;16.00;;
18574;SDS011;9417;16.484;102.872;2023-11-21T00:34:56;22.02;;;16.67;;
18574;SDS011;9417;16.484;102.872;2023-11-21T00:37:04;32.45;;;22.42;;
18574;SDS011;9417;16.484;102.872;2023-11-21T00:39:11;29.40;;;23.33;;
18574;SDS011;9417;16.484;102.872;2023-11-21T00:41:18;24.23;;;21.40;;
18574;SDS011;9417;16.484;102.872;2023-11-21T00:43:26;22.63;;;20.13;;
18574;SDS011;9417;16.484;102.872;2023-11-21T00:45:33;19.40;;;10.85;;
18574;SDS011;9417;16.484;102.872;2023-11-21T00:47:41;18.23;;;10.02;;
18574;SDS011;9417;16.484;102.872;2023-11-21T00:49:49;16.48;;;8.68;;
18574;SDS011;9417;16.484;102.872;2023-11-21T00:51:56;18.63;;;10.02;;
18574;SDS011;9417;16.484;102.872;2023-11-21T00:54:04;13.23;;;7.88;;
18574;SDS011;9417;16.484;102.872;2023-11-21T00:56:11;23.60;;;20.63;;
18574;SDS011;9417;16.484;102.872;2023-11-21T00:58:18;18.88;;;8.55;;
18574;SDS011;9417;16.484;102.872;2023-11-21T01:00:25;20.00;;;8.45;;
18574;SDS011;9417;16.484;102.872;2023-11-21T01:02:33;15.60;;;8.20;;
18574;SDS011;9417;16.484;102.872;2023-11-21T01:04:40;11.70;;;7.60;;
18574;SDS011;9417;16.484;102.872;2023-11-21T01:06:50;12.93;;;7.72;;
18574;SDS011;9417;16.484;102.872;2023-11-21T01:08:57;15.50;;;8.20;;
18574;SDS011;9417;16.484;102.872;2023-11-21T01:11:04;22.77;;;8.60;;
18574;SDS011;9417;16.484;102.872;2023-11-21T01:13:14;12.95;;;7.80;;
18574;SDS011;9417;16.484;102.872;2023-11-21T01:15:22;16.10;;;9.25;;
18574;SDS011;9417;16.484;102.872;2023-11-21T01:17:29;11.73;;;7.07;;
18574;SDS011;9417;16.484;102.872;2023-11-21T01:19:37;10.90;;;6.95;;
18574;SDS011;9417;16.484;102.872;2023-11-21T01:21:45;12.25;;;7.30;;
18574;SDS011;9417;16.484;102.872;2023-11-21T01:23:58;9.53;;;6.67;;
18574;SDS011;9417;16.484;102.872;2023-11-21T01:26:06;9.05;;;5.85;;
18574;SDS011;9417;16.484;102.872;2023-11-21T01:28:13;10.50;;;6.32;;
18574;SDS011;9417;16.484;102.872;2023-11-21T01:30:19;13.55;;;6.53;;
18574;SDS011;9417;16.484;102.872;2023-11-21T01:32:27;20.05;;;7.00;;
18574;SDS011;9417;16.484;102.872;2023-11-21T01:34:33;11.15;;;6.07;;
18574;SDS011;9417;16.484;102.872;2023-11-21T01:36:41;10.45;;;6.38;;
18574;SDS011;9417;16.484;102.872;2023-11-21T01:38:48;7.85;;;5.18;;
18574;SDS011;9417;16.484;102.872;2023-11-21T01:40:57;12.23;;;5.65;;
18574;SDS011;9417;16.484;102.872;2023-11-21T01:43:05;7.93;;;5.15;;
18574;SDS011;9417;16.484;102.872;2023-11-21T01:45:12;8.13;;;5.60;;
18574;SDS011;9417;16.484;102.872;2023-11-21T01:47:20;9.95;;;5.28;;
18574;SDS011;9417;16.484;102.872;2023-11-21T01:49:27;11.00;;;5.82;;
18574;SDS011;9417;16.484;102.872;2023-11-21T01:51:34;9.60;;;5.85;;
18574;SDS011;9417;16.484;102.872;2023-11-21T01:53:42;11.25;;;6.22;;
18574;SDS011;9417;16.484;102.872;2023-11-21T01:55:51;9.45;;;6.15;;
18574;SDS011;9417;16.484;102.872;2023-11-21T01:58:02;6.60;;;5.43;;
18574;SDS011;9417;16.484;102.872;2023-11-21T02:00:11;10.02;;;5.85;;
18574;SDS011;9417;16.484;102.872;2023-11-21T02:02:22;10.55;;;6.55;;
18574;SDS011;9417;16.484;102.872;2023-11-21T02:04:29;7.50;;;5.47;;
18574;SDS011;9417;16.484;102.872;2023-11-21T02:06:37;16.88;;;7.63;;
18574;SDS011;9417;16.484;102.872;2023-11-21T02:08:44;10.57;;;6.18;;
18574;SDS011;9417;16.484;102.872;2023-11-21T02:10:52;13.45;;;6.30;;
18574;SDS011;9417;16.484;102.872;2023-11-21T02:12:59;13.63;;;5.75;;
18574;SDS011;9417;16.484;102.872;2023-11-21T02:15:10;11.85;;;6.35;;
18574;SDS011;9417;16.484;102.872;2023-11-21T02:17:23;7.57;;;5.50;;
18574;SDS011;9417;16.484;102.872;2023-11-21T02:19:31;7.65;;;5.25;;
18574;SDS011;9417;16.484;102.872;2023-11-21T02:21:39;10.00;;;5.90;;
18574;SDS011;9417;16.484;102.872;2023-11-21T02:23:50;6.78;;;4.32;;
18574;SDS011;9417;16.484;102.872;2023-11-21T02:25:57;10.80;;;4.35;;
18574;SDS011;9417;16.484;102.872;2023-11-21T02:28:07;9.18;;;5.13;;
18574;SDS011;9417;16.484;102.872;2023-11-21T02:30:16;6.13;;;4.72;;
18574;SDS011;9417;16.484;102.872;2023-11-21T02:32:24;12.32;;;5.90;;
18574;SDS011;9417;16.484;102.872;2023-11-21T02:34:31;6.18;;;4.60;;
18574;SDS011;9417;16.484;102.872;2023-11-21T02:36:38;8.60;;;5.68;;
18574;SDS011;9417;16.484;102.872;2023-11-21T02:38:46;9.32;;;5.18;;
18574;SDS011;9417;16.484;102.872;2023-11-21T02:40:56;7.07;;;4.68;;
18574;SDS011;9417;16.484;102.872;2023-11-21T02:43:04;10.20;;;4.72;;
18574;SDS011;9417;16.484;102.872;2023-11-21T02:45:10;8.98;;;5.60;;
18574;SDS011;9417;16.484;102.872;2023-11-21T02:47:20;6.03;;;4.50;;
18574;SDS011;9417;16.484;102.872;2023-11-21T02:49:27;7.95;;;4.55;;
18574;SDS011;9417;16.484;102.872;2023-11-21T02:51:35;18.65;;;6.38;;
18574;SDS011;9417;16.484;102.872;2023-11-21T02:53:42;8.60;;;5.00;;
18574;SDS011;9417;16.484;102.872;2023-11-21T02:55:51;8.48;;;5.20;;
18574;SDS011;9417;16.484;102.872;2023-11-21T02:58:00;10.23;;;4.90;;
18574;SDS011;9417;16.484;102.872;2023-11-21T03:00:10;12.55;;;5.22;;
18574;SDS011;9417;16.484;102.872;2023-11-21T03:02:19;10.13;;;5.25;;
18574;SDS011;9417;16.484;102.872;2023-11-21T03:04:26;11.70;;;5.47;;
18574;SDS011;9417;16.484;102.872;2023-11-21T03:06:36;11.52;;;6.13;;
18574;SDS011;9417;16.484;102.872;2023-11-21T03:08:44;7.88;;;5.45;;
18574;SDS011;9417;16.484;102.872;2023-11-21T03:10:53;7.78;;;5.03;;
18574;SDS011;9417;16.484;102.872;2023-11-21T03:13:00;7.30;;;4.47;;
18574;SDS011;9417;16.484;102.872;2023-11-21T03:15:07;6.20;;;4.13;;
18574;SDS011;9417;16.484;102.872;2023-11-21T03:17:15;5.07;;;3.58;;
18574;SDS011;9417;16.484;102.872;2023-11-21T03:19:23;11.80;;;9.80;;
18574;SDS011;9417;16.484;102.872;2023-11-21T03:21:30;19.17;;;17.67;;
18574;SDS011;9417;16.484;102.872;2023-11-21T03:23:37;18.85;;;17.17;;
18574;SDS011;9417;16.484;102.872;2023-11-21T03:25:45;6.68;;;5.72;;
18574;SDS011;9417;16.484;102.872;2023-11-21T03:27:54;19.65;;;17.92;;
18574;SDS011;9417;16.484;102.872;2023-11-21T03:30:01;9.82;;;6.68;;
18574;SDS011;9417;16.484;102.872;2023-11-21T03:32:10;6.35;;;5.75;;
18574;SDS011;9417;16.484;102.872;2023-11-21T03:34:22;6.95;;;4.95;;
18574;SDS011;9417;16.484;102.872;2023-11-21T03:36:30;7.53;;;5.57;;
18574;SDS011;9417;16.484;102.872;2023-11-21T03:38:37;5.60;;;5.05;;
18574;SDS011;9417;16.484;102.872;2023-11-21T03:40:44;10.02;;;5.53;;
18574;SDS011;9417;16.484;102.872;2023-11-21T03:42:52;7.97;;;6.10;;
18574;SDS011;9417;16.484;102.872;2023-11-21T03:45:01;6.18;;;5.10;;
18574;SDS011;9417;16.484;102.872;2023-11-21T03:47:07;7.75;;;5.97;;
18574;SDS011;9417;16.484;102.872;2023-11-21T03:49:15;7.93;;;6.22;;
18574;SDS011;9417;16.484;102.872;2023-11-21T03:51:22;5.80;;;4.25;;
18574;SDS011;9417;16.484;102.872;2023-11-21T03:53:29;7.78;;;4.22;;
18574;SDS011;9417;16.484;102.872;2023-11-21T03:55:36;5.95;;;3.40;;
18574;SDS011;9417;16.484;102.872;2023-11-21T03:57:45;16.95;;;15.45;;
18574;SDS011;9417;16.484;102.872;2023-11-21T03:59:56;13.75;;;10.93;;
18574;SDS011;9417;16.484;102.872;2023-11-21T04:02:13;17.13;;;15.45;;
18574;SDS011;9417;16.484;102.872;2023-11-21T04:04:20;6.95;;;5.10;;
18574;SDS011;9417;16.484;102.872;2023-11-21T04:06:28;6.57;;;4.45;;
18574;SDS011;9417;16.484;102.872;2023-11-21T04:08:36;12.63;;;11.55;;
18574;SDS011;9417;16.484;102.872;2023-11-21T04:10:43;6.07;;;4.50;;
18574;SDS011;9417;16.484;102.872;2023-11-21T04:12:49;5.63;;;4.32;;
18574;SDS011;9417;16.484;102.872;2023-11-21T04:14:58;7.45;;;5.00;;
18574;SDS011;9417;16.484;102.872;2023-11-21T04:17:04;8.40;;;4.32;;
18574;SDS011;9417;16.484;102.872;2023-11-21T04:19:12;6.97;;;4.30;;
18574;SDS011;9417;16.484;102.872;2023-11-21T04:21:20;5.60;;;3.50;;
18574;SDS011;9417;16.484;102.872;2023-11-21T04:23:27;7.10;;;3.88;;
18574;SDS011;9417;16.484;102.872;2023-11-21T04:25:36;8.32;;;4.40;;
18574;SDS011;9417;16.484;102.872;2023-11-21T04:27:43;6.32;;;4.10;;
18574;SDS011;9417;16.484;102.872;2023-11-21T04:29:51;5.32;;;4.32;;
18574;SDS011;9417;16.484;102.872;2023-11-21T04:32:00;7.22;;;4.78;;
18574;SDS011;9417;16.484;102.872;2023-11-21T04:34:07;6.00;;;4.28;;
18574;SDS011;9417;16.484;102.872;2023-11-21T04:36:14;7.63;;;4.60;;
18574;SDS011;9417;16.484;102.872;2023-11-21T04:38:21;5.10;;;4.55;;
18574;SDS011;9417;16.484;102.872;2023-11-21T04:40:28;8.80;;;4.88;;
18574;SDS011;9417;16.484;102.872;2023-11-21T04:42:35;6.40;;;4.50;;
18574;SDS011;9417;16.484;102.872;2023-11-21T04:44:43;6.10;;;3.80;;
18574;SDS011;9417;16.484;102.872;2023-11-21T04:46:49;10.38;;;4.72;;
18574;SDS011;9417;16.484;102.872;2023-11-21T04:48:59;7.32;;;4.30;;
18574;SDS011;9417;16.484;102.872;2023-11-21T04:51:06;7.15;;;4.57;;
18574;SDS011;9417;16.484;102.872;2023-11-21T04:53:13;9.63;;;4.30;;
18574;SDS011;9417;16.484;102.872;2023-11-21T04:55:20;7.28;;;4.15;;
18574;SDS011;9417;16.484;102.872;2023-11-21T04:57:26;6.72;;;4.40;;
18574;SDS011;9417;16.484;102.872;2023-11-21T04:59:33;7.47;;;4.80;;
18574;SDS011;9417;16.484;102.872;2023-11-21T05:01:39;8.25;;;5.13;;
18574;SDS011;9417;16.484;102.872;2023-11-21T05:03:46;6.25;;;4.78;;
18574;SDS011;9417;16.484;102.872;2023-11-21T05:05:56;10.05;;;4.22;;
18574;SDS011;9417;16.484;102.872;2023-11-21T05:08:03;8.65;;;4.70;;
18574;SDS011;9417;16.484;102.872;2023-11-21T05:10:10;7.18;;;4.35;;
18574;SDS011;9417;16.484;102.872;2023-11-21T05:12:18;5.47;;;3.47;;
18574;SDS011;9417;16.484;102.872;2023-11-21T05:14:25;5.25;;;3.22;;
18574;SDS011;9417;16.484;102.872;2023-11-21T05:16:33;6.57;;;4.25;;
18574;SDS011;9417;16.484;102.872;2023-11-21T05:18:38;6.40;;;4.63;;
18574;SDS011;9417;16.484;102.872;2023-11-21T05:20:46;5.57;;;4.10;;
18574;SDS011;9417;16.484;102.872;2023-11-21T05:22:55;6.50;;;4.13;;
18574;SDS011;9417;16.484;102.872;2023-11-21T05:25:03;3.80;;;3.38;;
18574;SDS011;9417;16.484;102.872;2023-11-21T05:27:10;5.43;;;4.30;;
18574;SDS011;9417;16.484;102.872;2023-11-21T05:29:17;10.88;;;3.58;;
18574;SDS011;9417;16.484;102.872;2023-11-21T05:31:24;8.77;;;5.45;;
18574;SDS011;9417;16.484;102.872;2023-11-21T05:33:31;6.85;;;4.55;;
18574;SDS011;9417;16.484;102.872;2023-11-21T05:35:38;5.05;;;3.35;;
18574;SDS011;9417;16.484;102.872;2023-11-21T05:37:45;7.22;;;4.40;;
18574;SDS011;9417;16.484;102.872;2023-11-21T05:39:54;6.57;;;4.32;;
18574;SDS011;9417;16.484;102.872;2023-11-21T05:42:00;6.18;;;4.05;;
18574;SDS011;9417;16.484;102.872;2023-11-21T05:44:08;9.32;;;4.38;;
18574;SDS011;9417;16.484;102.872;2023-11-21T05:46:15;9.35;;;3.92;;
18574;SDS011;9417;16.484;102.872;2023-11-21T05:48:23;4.63;;;3.92;;
18574;SDS011;9417;16.484;102.872;2023-11-21T05:50:30;5.15;;;3.83;;
18574;SDS011;9417;16.484;102.872;2023-11-21T05:52:37;7.07;;;4.75;;
18574;SDS011;9417;16.484;102.872;2023-11-21T05:54:43;4.55;;;3.25;;
18574;SDS011;9417;16.484;102.872;2023-11-21T05:56:52;13.43;;;4.45;;
18574;SDS011;9417;16.484;102.872;2023-11-21T05:59:00;5.15;;;3.88;;
18574;SDS011;9417;16.484;102.872;2023-11-21T06:01:07;8.80;;;3.70;;
18574;SDS011;9417;16.484;102.872;2023-11-21T06:03:16;4.70;;;3.95;;
18574;SDS011;9417;16.484;102.872;2023-11-21T06:05:23;4.93;;;3.47;;
18574;SDS011;9417;16.484;102.872;2023-11-21T06:07:31;7.15;;;3.25;;
18574;SDS011;9417;16.484;102.872;2023-11-21T06:09:38;10.10;;;4.65;;
18574;SDS011;9417;16.484;102.872;2023-11-21T06:11:46;6.43;;;4.13;;
18574;SDS011;9417;16.484;102.872;2023-11-21T06:13:55;7.15;;;3.80;;
18574;SDS011;9417;16.484;102.872;2023-11-21T06:16:02;6.25;;;3.55;;
18574;SDS011;9417;16.484;102.872;2023-11-21T06:18:09;7.15;;;4.68;;
18574;SDS011;9417;16.484;102.872;2023-11-21T06:20:17;6.80;;;4.10;;
18574;SDS011;9417;16.484;102.872;2023-11-21T06:22:24;11.13;;;4.57;;
18574;SDS011;9417;16.484;102.872;2023-11-21T06:24:31;6.45;;;3.45;;
18574;SDS011;9417;16.484;102.872;2023-11-21T06:26:38;4.72;;;3.25;;
18574;SDS011;9417;16.484;102.872;2023-11-21T06:28:46;3.60;;;3.17;;
18574;SDS011;9417;16.484;102.872;2023-11-21T06:30:56;5.95;;;3.50;;
18574;SDS011;9417;16.484;102.872;2023-11-21T06:33:08;10.65;;;3.80;;
18574;SDS011;9417;16.484;102.872;2023-11-21T06:35:16;8.80;;;4.55;;
18574;SDS011;9417;16.484;102.872;2023-11-21T06:37:21;6.38;;;4.15;;
18574;SDS011;9417;16.484;102.872;2023-11-21T06:39:29;4.93;;;3.42;;
18574;SDS011;9417;16.484;102.872;2023-11-21T06:41:36;4.25;;;3.85;;
18574;SDS011;9417;16.484;102.872;2023-11-21T06:43:43;5.57;;;3.03;;
18574;SDS011;9417;16.484;102.872;2023-11-21T06:45:51;7.05;;;3.20;;
18574;SDS011;9417;16.484;102.872;2023-11-21T06:48:00;7.78;;;4.10;;
18574;SDS011;9417;16.484;102.872;2023-11-21T06:50:08;6.82;;;4.80;;
18574;SDS011;9417;16.484;102.872;2023-11-21T06:52:14;7.90;;;4.22;;
18574;SDS011;9417;16.484;102.872;2023-11-21T06:54:21;10.05;;;3.83;;
18574;SDS011;9417;16.484;102.872;2023-11-21T06:56:29;6.75;;;3.85;;
18574;SDS011;9417;16.484;102.872;2023-11-21T06:58:36;5.45;;;3.95;;
18574;SDS011;9417;16.484;102.872;2023-11-21T07:00:44;4.20;;;2.95;;
18574;SDS011;9417;16.484;102.872;2023-11-21T07:02:56;5.53;;;4.15;;
18574;SDS011;9417;16.484;102.872;2023-11-21T07:05:05;5.20;;;3.13;;
18574;SDS011;9417;16.484;102.872;2023-11-21T07:07:13;6.78;;;4.10;;
18574;SDS011;9417;16.484;102.872;2023-11-21T07:09:20;5.25;;;4.00;;
18574;SDS011;9417;16.484;102.872;2023-11-21T07:11:27;6.07;;;4.20;;
18574;SDS011;9417;16.484;102.872;2023-11-21T07:13:36;5.60;;;3.15;;
18574;SDS011;9417;16.484;102.872;2023-11-21T07:15:43;4.65;;;3.47;;
18574;SDS011;9417;16.484;102.872;2023-11-21T07:17:50;4.55;;;3.47;;
18574;SDS011;9417;16.484;102.872;2023-11-21T07:19:57;5.93;;;4.00;;
18574;SDS011;9417;16.484;102.872;2023-11-21T07:22:09;4.22;;;2.95;;
18574;SDS011;9417;16.484;102.872;2023-11-21T07:24:17;5.82;;;4.07;;
18574;SDS011;9417;16.484;102.872;2023-11-21T07:26:28;4.25;;;3.38;;
18574;SDS011;9417;16.484;102.872;2023-11-21T07:28:36;4.28;;;3.20;;
18574;SDS011;9417;16.484;102.872;2023-11-21T07:30:43;6.68;;;3.33;;
18574;SDS011;9417;16.484;102.872;2023-11-21T07:32:50;5.90;;;3.47;;
18574;SDS011;9417;16.484;102.872;2023-11-21T07:34:57;5.30;;;3.60;;
18574;SDS011;9417;16.484;102.872;2023-11-21T07:37:04;10.55;;;3.63;;
18574;SDS011;9417;16.484;102.872;2023-11-21T07:39:13;7.35;;;4.50;;
18574;SDS011;9417;16.484;102.872;2023-11-21T07:41:20;7.60;;;3.78;;
18574;SDS011;9417;16.484;102.872;2023-11-21T07:43:33;7.75;;;4.05;;
18574;SDS011;9417;16.484;102.872;2023-11-21T07:45:40;6.07;;;3.75;;
18574;SDS011;9417;16.484;102.872;2023-11-21T07:47:49;8.07;;;3.90;;
18574;SDS011;9417;16.484;102.872;2023-11-21T07:49:56;7.40;;;3.47;;
18574;SDS011;9417;16.484;102.872;2023-11-21T07:52:04;5.95;;;3.90;;
18574;SDS011;9417;16.484;102.872;2023-11-21T07:54:13;5.47;;;3.63;;
18574;SDS011;9417;16.484;102.872;2023-11-21T07:56:20;8.40;;;3.50;;
18574;SDS011;9417;16.484;102.872;2023-11-21T07:58:28;5.00;;;3.90;;
18574;SDS011;9417;16.484;102.872;2023-11-21T08:00:36;5.95;;;3.55;;
18574;SDS011;9417;16.484;102.872;2023-11-21T08:02:43;9.82;;;3.65;;
18574;SDS011;9417;16.484;102.872;2023-11-21T08:04:51;4.70;;;3.25;;
18574;SDS011;9417;16.484;102.872;2023-11-21T08:07:00;6.20;;;3.53;;
18574;SDS011;9417;16.484;102.872;2023-11-21T08:09:08;3.58;;;2.70;;
18574;SDS011;9417;16.484;102.872;2023-11-21T08:11:17;3.55;;;2.50;;
18574;SDS011;9417;16.484;102.872;2023-11-21T08:13:25;6.03;;;3.97;;
18574;SDS011;9417;16.484;102.872;2023-11-21T08:15:34;7.90;;;3.95;;
18574;SDS011;9417;16.484;102.872;2023-11-21T08:17:41;3.78;;;2.85;;
18574;SDS011;9417;16.484;102.872;2023-11-21T08:19:48;7.00;;;3.60;;
18574;SDS011;9417;16.484;102.872;2023-11-21T08:21:56;3.33;;;3.00;;
18574;SDS011;9417;16.484;102.872;2023-11-21T08:24:03;4.75;;;3.03;;
18574;SDS011;9417;16.484;102.872;2023-11-21T08:26:17;3.08;;;2.17;;
18574;SDS011;9417;16.484;102.872;2023-11-21T08:28:24;3.92;;;3.13;;
18574;SDS011;9417;16.484;102.872;2023-11-21T08:30:30;3.58;;;2.65;;
18574;SDS011;9417;16.484;102.872;2023-11-21T08:32:38;4.63;;;3.50;;
18574;SDS011;9417;16.484;102.872;2023-11-21T08:34:45;4.25;;;3.00;;
18574;SDS011;9417;16.484;102.872;2023-11-21T08:36:55;2.63;;;2.40;;
18574;SDS011;9417;16.484;102.872;2023-11-21T08:39:02;2.85;;;2.05;;
18574;SDS011;9417;16.484;102.872;2023-11-21T08:41:09;7.05;;;3.97;;
18574;SDS011;9417;16.484;102.872;2023-11-21T08:43:19;4.25;;;3.15;;
18574;SDS011;9417;16.484;102.872;2023-11-21T08:45:27;4.70;;;2.70;;
18574;SDS011;9417;16.484;102.872;2023-11-21T08:47:35;5.78;;;3.75;;
18574;SDS011;9417;16.484;102.872;2023-11-21T08:49:43;6.28;;;4.50;;
18574;SDS011;9417;16.484;102.872;2023-11-21T08:51:50;5.78;;;4.22;;
18574;SDS011;9417;16.484;102.872;2023-11-21T08:53:59;4.35;;;3.25;;
18574;SDS011;9417;16.484;102.872;2023-11-21T08:56:08;5.25;;;3.35;;
18574;SDS011;9417;16.484;102.872;2023-11-21T08:58:21;7.60;;;3.53;;
18574;SDS011;9417;16.484;102.872;2023-11-21T09:00:28;4.05;;;3.05;;
18574;SDS011;9417;16.484;102.872;2023-11-21T09:02:35;4.05;;;2.72;;
18574;SDS011;9417;16.484;102.872;2023-11-21T09:04:42;5.57;;;3.58;;
18574;SDS011;9417;16.484;102.872;2023-11-21T09:06:50;6.43;;;3.72;;
18574;SDS011;9417;16.484;102.872;2023-11-21T09:08:57;5.38;;;3.72;;
18574;SDS011;9417;16.484;102.872;2023-11-21T09:11:04;4.75;;;3.33;;
18574;SDS011;9417;16.484;102.872;2023-11-21T09:13:11;3.83;;;2.90;;
18574;SDS011;9417;16.484;102.872;2023-11-21T09:15:22;6.30;;;2.88;;
18574;SDS011;9417;16.484;102.872;2023-11-21T09:17:29;2.53;;;2.22;;
18574;SDS011;9417;16.484;102.872;2023-11-21T09:19:35;3.22;;;2.00;;
18574;SDS011;9417;16.484;102.872;2023-11-21T09:21:42;3.40;;;2.17;;
18574;SDS011;9417;16.484;102.872;2023-11-21T09:23:49;3.58;;;1.75;;
18574;SDS011;9417;16.484;102.872;2023-11-21T09:25:57;2.78;;;2.22;;
18574;SDS011;9417;16.484;102.872;2023-11-21T09:28:05;2.60;;;1.98;;
18574;SDS011;9417;16.484;102.872;2023-11-21T09:30:13;5.35;;;3.28;;
18574;SDS011;9417;16.484;102.872;2023-11-21T09:32:22;4.15;;;2.83;;
18574;SDS011;9417;16.484;102.872;2023-11-21T09:34:29;5.28;;;3.17;;
18574;SDS011;9417;16.484;102.872;2023-11-21T09:36:36;2.83;;;2.00;;
18574;SDS011;9417;16.484;102.872;2023-11-21T09:38:43;2.38;;;2.17;;
18574;SDS011;9417;16.484;102.872;2023-11-21T09:40:53;4.30;;;1.77;;
18574;SDS011;9417;16.484;102.872;2023-11-21T09:43:02;1.88;;;1.60;;
18574;SDS011;9417;16.484;102.872;2023-11-21T09:45:23;2.00;;;1.60;;
18574;SDS011;9417;16.484;102.872;2023-11-21T09:47:33;1.95;;;1.65;;
18574;SDS011;9417;16.484;102.872;2023-11-21T09:49:46;1.40;;;1.30;;
18574;SDS011;9417;16.484;102.872;2023-11-21T09:51:55;1.35;;;1.25;;
18574;SDS011;9417;16.484;102.872;2023-11-21T09:54:03;3.15;;;1.75;;
18574;SDS011;9417;16.484;102.872;2023-11-21T09:56:12;1.83;;;1.65;;
18574;SDS011;9417;16.484;102.872;2023-11-21T09:58:22;1.70;;;1.60;;
18574;SDS011;9417;16.484;102.872;2023-11-21T10:00:30;1.70;;;1.30;;
18574;SDS011;9417;16.484;102.872;2023-11-21T10:02:39;1.55;;;1.45;;
18574;SDS011;9417;16.484;102.872;2023-11-21T10:04:46;2.25;;;1.85;;
18574;SDS011;9417;16.484;102.872;2023-11-21T10:06:54;2.58;;;1.73;;
18574;SDS011;9417;16.484;102.872;2023-11-21T10:09:01;2.83;;;1.90;;
18574;SDS011;9417;16.484;102.872;2023-11-21T10:11:15;4.45;;;1.90;;
18574;SDS011;9417;16.484;102.872;2023-11-21T10:13:25;5.80;;;2.58;;
18574;SDS011;9417;16.484;102.872;2023-11-21T10:15:40;2.25;;;1.80;;
18574;SDS011;9417;16.484;102.872;2023-11-21T10:20:03;2.97;;;2.40;;
18574;SDS011;9417;16.484;102.872;2023-11-21T10:22:18;3.13;;;2.45;;
18574;SDS011;9417;16.484;102.872;2023-11-21T10:24:28;2.53;;;2.33;;
18574;SDS011;9417;16.484;102.872;2023-11-21T10:26:50;5.28;;;3.08;;
18574;SDS011;9417;16.484;102.872;2023-11-21T10:28:57;3.60;;;2.58;;
18574;SDS011;9417;16.484;102.872;2023-11-21T10:31:06;4.20;;;3.45;;
18574;SDS011;9417;16.484;102.872;2023-11-21T10:33:16;6.55;;;3.13;;
18574;SDS011;9417;16.484;102.872;2023-11-21T10:35:39;5.00;;;3.40;;
18574;SDS011;9417;16.484;102.872;2023-11-21T10:37:59;4.82;;;3.30;;
18574;SDS011;9417;16.484;102.872;2023-11-21T10:40:08;6.35;;;2.88;;
18574;SDS011;9417;16.484;102.872;2023-11-21T10:42:16;4.97;;;3.15;;
18574;SDS011;9417;16.484;102.872;2023-11-21T10:44:27;6.32;;;3.33;;
18574;SDS011;9417;16.484;102.872;2023-11-21T10:46:37;4.32;;;3.72;;
18574;SDS011;9417;16.484;102.872;2023-11-21T10:48:45;5.20;;;3.83;;
18574;SDS011;9417;16.484;102.872;2023-11-21T10:50:58;6.80;;;3.75;;
18574;SDS011;9417;16.484;102.872;2023-11-21T10:53:08;5.95;;;3.90;;
18574;SDS011;9417;16.484;102.872;2023-11-21T10:55:18;4.78;;;3.63;;
18574;SDS011;9417;16.484;102.872;2023-11-21T10:57:28;3.63;;;2.90;;
18574;SDS011;9417;16.484;102.872;2023-11-21T10:59:36;6.85;;;3.85;;
18574;SDS011;9417;16.484;102.872;2023-11-21T11:01:42;15.93;;;14.63;;
18574;SDS011;9417;16.484;102.872;2023-11-21T11:03:55;3.63;;;3.28;;
18574;SDS011;9417;16.484;102.872;2023-11-21T11:06:02;5.03;;;3.90;;
18574;SDS011;9417;16.484;102.872;2023-11-21T11:08:15;8.25;;;3.78;;
18574;SDS011;9417;16.484;102.872;2023-11-21T11:10:22;6.45;;;4.93;;
18574;SDS011;9417;16.484;102.872;2023-11-21T11:12:30;4.57;;;3.75;;
18574;SDS011;9417;16.484;102.872;2023-11-21T11:14:38;5.00;;;3.55;;
18574;SDS011;9417;16.484;102.872;2023-11-21T11:16:48;4.50;;;4.05;;
18574;SDS011;9417;16.484;102.872;2023-11-21T11:18:57;6.00;;;4.28;;
18574;SDS011;9417;16.484;102.872;2023-11-21T11:21:07;5.82;;;4.63;;
18574;SDS011;9417;16.484;102.872;2023-11-21T11:23:29;7.78;;;4.35;;
18574;SDS011;9417;16.484;102.872;2023-11-21T11:25:57;5.40;;;4.20;;
18574;SDS011;9417;16.484;102.872;2023-11-21T11:28:14;5.57;;;4.35;;
18574;SDS011;9417;16.484;102.872;2023-11-21T11:30:27;7.30;;;4.63;;
18574;SDS011;9417;16.484;102.872;2023-11-21T11:32:47;9.63;;;5.35;;
18574;SDS011;9417;16.484;102.872;2023-11-21T11:35:03;7.22;;;4.03;;
18574;SDS011;9417;16.484;102.872;2023-11-21T11:37:18;8.07;;;4.80;;
18574;SDS011;9417;16.484;102.872;2023-11-21T11:39:30;6.60;;;4.83;;
18574;SDS011;9417;16.484;102.872;2023-11-21T11:41:42;9.50;;;5.00;;
18574;SDS011;9417;16.484;102.872;2023-11-21T11:43:50;5.20;;;4.63;;
18574;SDS011;9417;16.484;102.872;2023-11-21T11:45:58;7.50;;;4.97;;
18574;SDS011;9417;16.484;102.872;2023-11-21T11:48:07;10.15;;;6.45;;
18574;SDS011;9417;16.484;102.872;2023-11-21T11:50:19;13.63;;;7.07;;
18574;SDS011;9417;16.484;102.872;2023-11-21T11:52:37;9.25;;;6.18;;
18574;SDS011;9417;16.484;102.872;2023-11-21T11:54:46;10.32;;;5.82;;
18574;SDS011;9417;16.484;102.872;2023-11-21T11:56:55;10.73;;;5.95;;
18574;SDS011;9417;16.484;102.872;2023-11-21T11:59:04;11.57;;;5.82;;
18574;SDS011;9417;16.484;102.872;2023-11-21T12:01:13;9.13;;;5.72;;
18574;SDS011;9417;16.484;102.872;2023-11-21T12:03:21;13.15;;;6.65;;
18574;SDS011;9417;16.484;102.872;2023-11-21T12:05:30;10.80;;;6.93;;
18574;SDS011;9417;16.484;102.872;2023-11-21T12:07:41;11.00;;;7.00;;
18574;SDS011;9417;16.484;102.872;2023-11-21T12:09:49;10.82;;;6.18;;
18574;SDS011;9417;16.484;102.872;2023-11-21T12:11:56;8.65;;;6.30;;
18574;SDS011;9417;16.484;102.872;2023-11-21T12:14:05;13.00;;;6.97;;
18574;SDS011;9417;16.484;102.872;2023-11-21T12:16:13;11.82;;;5.30;;
18574;SDS011;9417;16.484;102.872;2023-11-21T12:18:20;10.38;;;6.18;;
18574;SDS011;9417;16.484;102.872;2023-11-21T12:20:31;10.23;;;6.07;;
18574;SDS011;9417;16.484;102.872;2023-11-21T12:22:42;8.40;;;5.63;;
18574;SDS011;9417;16.484;102.872;2023-11-21T12:24:51;7.80;;;5.60;;
18574;SDS011;9417;16.484;102.872;2023-11-21T12:27:00;7.85;;;5.35;;
18574;SDS011;9417;16.484;102.872;2023-11-21T12:29:08;9.15;;;5.57;;
18574;SDS011;9417;16.484;102.872;2023-11-21T12:31:18;10.48;;;5.63;;
18574;SDS011;9417;16.484;102.872;2023-11-21T12:33:26;7.20;;;5.82;;
18574;SDS011;9417;16.484;102.872;2023-11-21T12:35:35;10.70;;;5.10;;
18574;SDS011;9417;16.484;102.872;2023-11-21T12:37:43;7.35;;;4.95;;
18574;SDS011;9417;16.484;102.872;2023-11-21T12:39:51;8.88;;;5.55;;
18574;SDS011;9417;16.484;102.872;2023-11-21T12:41:58;9.55;;;5.13;;